createdAt,value
2022-11-28T00:04:19.756Z,3.67
2022-11-28T00:09:23.526Z,3.80
2022-11-28T00:14:27.029Z,3.57
2022-11-28T00:19:32.027Z,3.63
2022-11-28T00:24:35.680Z,3.33
2022-11-28T00:29:40.487Z,3.30
2022-11-28T00:34:45.452Z,3.80
2022-11-28T00:39:49.128Z,3.20
2022-11-28T00:44:52.684Z,3.23
2022-11-28T00:49:57.669Z,3.20
2022-11-28T00:55:01.214Z,3.10
2022-11-28T01:00:06.135Z,3.07
2022-11-28T01:05:11.564Z,3.20
2022-11-28T01:10:15.325Z,3.10
2022-11-28T01:15:19.020Z,3.37
2022-11-28T01:20:24.087Z,3.20
2022-11-28T01:25:28.135Z,3.57
2022-11-28T01:30:31.838Z,3.20
2022-11-28T01:35:36.907Z,3.40
2022-11-28T01:40:47.146Z,3.10
2022-11-28T01:45:51.220Z,3.10
2022-11-28T01:51:00.027Z,3.37
2022-11-28T01:56:07.934Z,3.53
2022-11-28T02:01:12.537Z,3.17
2022-11-28T02:06:20.679Z,3.23
2022-11-28T02:11:40.793Z,2.97
2022-11-28T02:16:59.536Z,3.23
2022-11-28T02:22:12.371Z,3.10
2022-11-28T02:27:40.616Z,3.30
2022-11-28T02:33:06.815Z,3.23
2022-11-28T02:38:20.614Z,3.40
2022-11-28T02:43:32.838Z,3.70
2022-11-28T02:48:45.462Z,3.70
2022-11-28T02:53:52.467Z,3.47
2022-11-28T02:58:56.343Z,3.40
2022-11-28T03:04:17.812Z,3.40
2022-11-28T03:09:37.139Z,3.60
2022-11-28T03:14:51.156Z,3.40
2022-11-28T03:20:04.397Z,3.30
2022-11-28T03:25:14.728Z,3.60
2022-11-28T03:30:23.344Z,3.37
2022-11-28T03:35:33.209Z,3.90
2022-11-28T03:40:44.315Z,3.60
2022-11-28T03:45:52.698Z,3.57
2022-11-28T03:51:07.121Z,3.60
2022-11-28T03:56:16.328Z,3.40
2022-11-28T04:01:30.427Z,3.27
2022-11-28T04:06:45.804Z,3.57
2022-11-28T04:11:55.576Z,3.37
2022-11-28T04:17:11.972Z,3.47
2022-11-28T04:22:21.319Z,3.50
2022-11-28T04:27:29.256Z,3.13
2022-11-28T04:32:37.833Z,3.27
2022-11-28T04:37:48.895Z,3.60
2022-11-28T04:42:57.818Z,3.13
2022-11-28T04:48:02.189Z,3.47
2022-11-28T04:53:14.087Z,3.13
2022-11-28T04:58:22.214Z,2.87
2022-11-28T05:03:29.720Z,3.00
2022-11-28T05:08:35.057Z,3.53
2022-11-28T05:13:38.513Z,3.70
2022-11-28T05:18:44.346Z,3.57
2022-11-28T05:23:51.643Z,3.10
2022-11-28T05:29:05.501Z,3.20
2022-11-28T05:34:09.324Z,3.60
2022-11-28T05:39:14.428Z,3.03
2022-11-28T05:44:21.584Z,3.50
2022-11-28T05:49:29.844Z,3.40
2022-11-28T05:54:35.143Z,3.17
2022-11-28T05:59:38.945Z,3.00
2022-11-28T06:10:40.028Z,3.40
2022-11-28T06:21:28.504Z,3.00
2022-11-28T06:26:33.602Z,3.97
2022-11-28T06:31:37.561Z,3.33
2022-11-28T06:36:41.759Z,3.60
2022-11-28T06:41:46.818Z,4.23
2022-11-28T06:46:50.344Z,4.93
2022-11-28T06:51:53.828Z,12.53
2022-11-28T06:56:58.957Z,3.97
2022-11-28T07:02:07.485Z,3.43
2022-11-28T07:07:16.136Z,3.63
2022-11-28T07:12:21.705Z,3.53
2022-11-28T07:17:25.255Z,4.17
2022-11-28T07:22:28.827Z,3.10
2022-11-28T07:27:33.881Z,3.23
2022-11-28T07:32:40.582Z,3.10
2022-11-28T07:37:44.217Z,3.77
2022-11-28T07:42:49.406Z,3.30
2022-11-28T07:47:52.926Z,3.83
2022-11-28T07:52:57.205Z,4.67
2022-11-28T07:58:02.252Z,3.40
2022-11-28T08:03:05.798Z,4.03
2022-11-28T08:08:09.429Z,4.33
2022-11-28T08:13:15.386Z,5.30
2022-11-28T08:18:18.933Z,3.77
2022-11-28T08:23:22.481Z,4.27
2022-11-28T08:28:27.579Z,3.93
2022-11-28T08:33:31.157Z,3.83
2022-11-28T08:38:34.687Z,4.40
2022-11-28T08:43:40.329Z,4.30
2022-11-28T08:48:44.562Z,5.50
2022-11-28T08:53:49.417Z,4.47
2022-11-28T08:58:54.641Z,4.70
2022-11-28T09:03:58.411Z,4.03
2022-11-28T09:09:05.033Z,3.60
2022-11-28T09:14:10.597Z,4.13
2022-11-28T09:19:14.257Z,3.67
2022-11-28T09:24:17.929Z,4.60
2022-11-28T09:29:23.081Z,4.20
2022-11-28T09:34:27.607Z,3.83
2022-11-28T09:39:43.873Z,3.77
2022-11-28T09:44:59.803Z,3.87
2022-11-28T09:50:11.112Z,3.90
2022-11-28T09:55:20.556Z,3.97
2022-11-28T10:00:33.754Z,3.60
2022-11-28T10:05:41.458Z,3.80
2022-11-28T10:11:04.196Z,3.93
2022-11-28T10:16:20.509Z,3.97
2022-11-28T10:21:30.180Z,4.00
2022-11-28T10:26:39.404Z,4.27
2022-11-28T10:31:47.161Z,5.03
2022-11-28T10:36:59.022Z,4.97
2022-11-28T10:42:16.715Z,4.60
2022-11-28T10:48:29.897Z,4.27
2022-11-28T10:53:38.454Z,4.57
2022-11-28T10:58:48.628Z,4.67
2022-11-28T11:03:54.234Z,5.17
2022-11-28T11:09:02.886Z,5.27
2022-11-28T11:14:11.149Z,5.57
2022-11-28T11:19:25.691Z,4.80
2022-11-28T11:24:29.804Z,4.67
2022-11-28T11:29:40.732Z,6.30
2022-11-28T11:34:47.946Z,6.07
2022-11-28T11:39:55.928Z,5.13
2022-11-28T11:45:29.971Z,5.10
2022-11-28T11:56:04.335Z,6.67
2022-11-28T12:01:22.595Z,6.50
2022-11-28T12:06:41.376Z,5.63
2022-11-28T12:11:57.990Z,5.53
2022-11-28T12:17:46.802Z,4.90
2022-11-28T12:23:17.615Z,4.57
2022-11-28T12:28:51.466Z,5.03
2022-11-28T12:34:13.330Z,5.83
2022-11-28T14:30:00.549Z,7.17
2022-11-28T14:44:37.478Z,7.67
2022-11-28T15:09:26.166Z,7.30
2022-11-28T15:14:20.746Z,6.90
2022-11-28T15:19:44.563Z,8.87
2022-11-28T15:51:48.855Z,7.50
2022-11-28T15:57:30.372Z,7.83
2022-11-28T16:02:45.652Z,6.53
2022-11-28T16:07:55.091Z,6.17
2022-11-28T16:13:15.794Z,6.50
2022-11-28T16:18:36.169Z,6.60
2022-11-28T16:23:52.474Z,7.00
2022-11-28T16:29:16.780Z,6.93
2022-11-28T16:34:49.563Z,5.70
2022-11-28T16:40:19.414Z,6.33
2022-11-28T16:45:29.098Z,5.87
2022-11-28T16:50:39.422Z,5.80
2022-11-28T16:55:48.750Z,6.47
2022-11-28T17:01:05.350Z,6.40
2022-11-28T17:06:23.542Z,8.47
2022-11-28T17:11:35.108Z,9.43
2022-11-28T17:16:43.817Z,8.23
2022-11-28T17:21:51.840Z,6.77
2022-11-28T17:26:58.485Z,6.20
2022-11-28T17:32:08.233Z,6.60
2022-11-28T17:37:31.804Z,6.30
2022-11-28T17:42:39.503Z,8.50
2022-11-28T17:47:52.522Z,8.97
2022-11-28T17:53:00.457Z,11.53
2022-11-28T17:58:06.031Z,7.97
2022-11-28T18:03:15.930Z,7.10
2022-11-28T18:08:25.629Z,6.57
2022-11-28T18:13:48.168Z,7.23
2022-11-28T18:19:38.986Z,7.60
2022-11-28T18:25:23.700Z,6.83
2022-11-28T18:30:44.690Z,8.20
2022-11-28T18:35:59.324Z,8.10
2022-11-28T18:41:12.861Z,7.33
2022-11-28T18:46:26.213Z,6.63
2022-11-28T18:51:41.364Z,6.40
2022-11-28T18:56:58.471Z,6.77
2022-11-28T19:02:10.550Z,6.63
2022-11-28T19:07:19.868Z,7.03
2022-11-28T19:12:26.863Z,7.27
2022-11-28T19:17:45.116Z,7.10
2022-11-28T19:22:58.331Z,6.93
2022-11-28T19:28:06.566Z,8.80
2022-11-28T19:33:15.722Z,7.60
2022-11-28T19:38:25.140Z,7.63
2022-11-28T19:43:33.353Z,8.27
2022-11-28T19:48:39.758Z,8.13
2022-11-28T19:53:47.075Z,8.40
2022-11-28T19:58:52.886Z,8.97
2022-11-28T20:03:58.460Z,9.03
2022-11-28T20:09:08.434Z,9.13
2022-11-28T20:14:14.972Z,9.77
2022-11-28T20:19:19.516Z,9.80
2022-11-28T20:24:26.371Z,10.63
2022-11-28T20:29:31.971Z,10.30
2022-11-28T20:34:37.753Z,11.87
2022-11-28T20:39:44.345Z,10.20
2022-11-28T20:44:52.416Z,10.43
2022-11-28T20:49:57.668Z,10.93
2022-11-28T20:55:05.161Z,11.37
2022-11-28T21:00:11.988Z,11.77
2022-11-28T21:05:17.053Z,11.53
2022-11-28T21:10:22.740Z,11.77
2022-11-28T21:15:28.559Z,11.33
2022-11-28T21:20:34.546Z,11.77
2022-11-28T21:25:42.062Z,10.10
2022-11-28T21:30:48.135Z,9.43
2022-11-28T21:35:52.429Z,11.00
2022-11-28T21:40:57.551Z,10.67
2022-11-28T21:46:04.058Z,12.03
2022-11-28T21:51:09.998Z,10.97
2022-11-28T21:56:15.309Z,12.97
2022-11-28T22:01:20.489Z,13.30
2022-11-28T22:06:28.940Z,12.17
2022-11-28T22:11:33.910Z,13.07
2022-11-28T22:16:37.761Z,12.10
2022-11-28T22:21:56.631Z,11.83
2022-11-28T22:27:01.986Z,10.93
2022-11-28T22:32:06.183Z,10.97
2022-11-28T22:37:10.171Z,10.77
2022-11-28T22:42:15.231Z,11.20
2022-11-28T22:47:18.767Z,10.90
2022-11-28T22:52:22.412Z,11.63
2022-11-28T22:57:27.387Z,10.47
2022-11-28T23:02:34.222Z,10.27
2022-11-28T23:07:38.156Z,10.10
2022-11-28T23:12:43.405Z,10.67
2022-11-28T23:17:47.068Z,10.60
2022-11-28T23:22:53.092Z,11.10
2022-11-28T23:27:58.110Z,10.70
2022-11-28T23:33:40.269Z,10.27
2022-11-28T23:38:44.355Z,11.03
2022-11-28T23:43:50.139Z,10.70
2022-11-28T23:48:54.082Z,11.40
2022-11-28T23:53:57.675Z,10.47
2022-11-28T23:59:05.574Z,9.70
